sensor_id;sensor_type;location;lat;lon;timestamp;pressure;altitude;pressure_sealevel;temperature;humidity
17855;BME280;9053;53.358;6.382;2023-06-10T00:00:55;101757.91;;;17.84;86.99
17855;BME280;9053;53.358;6.382;2023-06-10T00:03:26;101750.66;;;17.78;87.08
17855;BME280;9053;53.358;6.382;2023-06-10T00:05:56;101753.28;;;17.75;87.11
17855;BME280;9053;53.358;6.382;2023-06-10T00:08:26;101753.25;;;17.73;87.22
17855;BME280;9053;53.358;6.382;2023-06-10T00:11:00;101754.13;;;17.72;87.11
17855;BME280;9053;53.358;6.382;2023-06-10T00:13:31;101761.16;;;17.70;87.06
17855;BME280;9053;53.358;6.382;2023-06-10T00:16:01;101762.91;;;17.68;86.96
17855;BME280;9053;53.358;6.382;2023-06-10T00:18:31;101754.91;;;17.67;87.15
17855;BME280;9053;53.358;6.382;2023-06-10T00:21:05;101755.69;;;17.63;87.05
17855;BME280;9053;53.358;6.382;2023-06-10T00:23:35;101750.28;;;17.58;87.03
17855;BME280;9053;53.358;6.382;2023-06-10T00:26:08;101753.00;;;17.60;87.14
17855;BME280;9053;53.358;6.382;2023-06-10T00:28:38;101758.22;;;17.55;87.05
17855;BME280;9053;53.358;6.382;2023-06-10T00:31:08;101755.50;;;17.52;87.23
17855;BME280;9053;53.358;6.382;2023-06-10T00:33:38;101753.63;;;17.48;87.22
17855;BME280;9053;53.358;6.382;2023-06-10T00:36:09;101765.09;;;17.45;87.42
17855;BME280;9053;53.358;6.382;2023-06-10T00:38:40;101765.94;;;17.43;87.16
17855;BME280;9053;53.358;6.382;2023-06-10T00:41:13;101763.13;;;17.35;87.44
17855;BME280;9053;53.358;6.382;2023-06-10T00:43:43;101763.97;;;17.33;87.54
17855;BME280;9053;53.358;6.382;2023-06-10T00:46:15;101771.84;;;17.28;87.76
17855;BME280;9053;53.358;6.382;2023-06-10T00:48:46;101777.97;;;17.25;87.68
17855;BME280;9053;53.358;6.382;2023-06-10T00:51:16;101758.31;;;17.17;87.72
17855;BME280;9053;53.358;6.382;2023-06-10T00:53:47;101768.84;;;17.13;87.82
17855;BME280;9053;53.358;6.382;2023-06-10T00:56:20;101760.88;;;17.11;88.01
17855;BME280;9053;53.358;6.382;2023-06-10T00:58:50;101766.97;;;17.07;88.09
17855;BME280;9053;53.358;6.382;2023-06-10T01:01:20;101769.56;;;17.05;88.15
17855;BME280;9053;53.358;6.382;2023-06-10T01:03:50;101762.53;;;17.07;88.03
17855;BME280;9053;53.358;6.382;2023-06-10T01:06:31;101763.38;;;17.05;88.09
17855;BME280;9053;53.358;6.382;2023-06-10T01:09:11;101768.69;;;17.05;88.14
17855;BME280;9053;53.358;6.382;2023-06-10T01:11:50;101766.84;;;17.02;87.86
17855;BME280;9053;53.358;6.382;2023-06-10T01:14:22;101773.00;;;17.00;87.81
17855;BME280;9053;53.358;6.382;2023-06-10T01:16:52;101763.16;;;16.96;87.61
17855;BME280;9053;53.358;6.382;2023-06-10T01:19:23;101763.03;;;16.90;87.33
17855;BME280;9053;53.358;6.382;2023-06-10T01:21:56;101761.16;;;16.85;87.12
17855;BME280;9053;53.358;6.382;2023-06-10T01:24:27;101772.63;;;16.83;86.80
17855;BME280;9053;53.358;6.382;2023-06-10T01:27:01;101770.69;;;16.77;86.42
17855;BME280;9053;53.358;6.382;2023-06-10T01:29:41;101773.16;;;16.70;86.62
17855;BME280;9053;53.358;6.382;2023-06-10T01:32:15;101778.44;;;16.68;86.72
17855;BME280;9053;53.358;6.382;2023-06-10T01:34:48;101780.06;;;16.63;86.56
17855;BME280;9053;53.358;6.382;2023-06-10T01:37:24;101773.75;;;16.58;86.55
17855;BME280;9053;53.358;6.382;2023-06-10T01:39:57;101780.78;;;16.54;86.29
17855;BME280;9053;53.358;6.382;2023-06-10T01:42:28;101778.94;;;16.52;86.28
17855;BME280;9053;53.358;6.382;2023-06-10T01:44:58;101781.53;;;16.49;86.18
17855;BME280;9053;53.358;6.382;2023-06-10T01:47:30;101778.63;;;16.39;86.20
17855;BME280;9053;53.358;6.382;2023-06-10T01:50:00;101783.81;;;16.35;86.24
17855;BME280;9053;53.358;6.382;2023-06-10T01:52:33;101788.16;;;16.31;86.46
17855;BME280;9053;53.358;6.382;2023-06-10T01:55:04;101787.22;;;16.29;86.67
17855;BME280;9053;53.358;6.382;2023-06-10T01:57:34;101780.03;;;16.25;86.60
17855;BME280;9053;53.358;6.382;2023-06-10T02:00:06;101773.84;;;16.25;86.83
17855;BME280;9053;53.358;6.382;2023-06-10T02:02:37;101779.19;;;16.26;87.00
17855;BME280;9053;53.358;6.382;2023-06-10T02:05:07;101780.91;;;16.24;86.97
17855;BME280;9053;53.358;6.382;2023-06-10T02:07:40;101780.75;;;16.18;87.21
17855;BME280;9053;53.358;6.382;2023-06-10T02:10:11;101784.25;;;16.17;87.56
17855;BME280;9053;53.358;6.382;2023-06-10T02:12:41;101788.63;;;16.15;87.67
17855;BME280;9053;53.358;6.382;2023-06-10T02:15:11;101777.09;;;16.13;87.86
17855;BME280;9053;53.358;6.382;2023-06-10T02:17:40;101779.63;;;16.10;88.01
17855;BME280;9053;53.358;6.382;2023-06-10T02:20:13;101785.75;;;16.06;88.22
17855;BME280;9053;53.358;6.382;2023-06-10T02:22:45;101784.72;;;16.00;88.62
17855;BME280;9053;53.358;6.382;2023-06-10T02:25:15;101793.50;;;15.98;89.03
17855;BME280;9053;53.358;6.382;2023-06-10T02:27:45;101786.47;;;16.00;89.36
17855;BME280;9053;53.358;6.382;2023-06-10T02:30:15;101786.38;;;15.97;89.88
17855;BME280;9053;53.358;6.382;2023-06-10T02:32:46;101788.00;;;15.92;90.13
17855;BME280;9053;53.358;6.382;2023-06-10T02:35:17;101788.88;;;15.91;90.55
17855;BME280;9053;53.358;6.382;2023-06-10T02:37:50;101787.06;;;15.88;90.78
17855;BME280;9053;53.358;6.382;2023-06-10T02:40:20;101792.16;;;15.82;91.24
17855;BME280;9053;53.358;6.382;2023-06-10T02:42:50;101791.03;;;15.72;91.79
17855;BME280;9053;53.358;6.382;2023-06-10T02:45:20;101785.50;;;15.66;92.45
17855;BME280;9053;53.358;6.382;2023-06-10T02:47:50;101781.97;;;15.66;92.83
17855;BME280;9053;53.358;6.382;2023-06-10T02:50:20;101779.25;;;15.63;93.28
17855;BME280;9053;53.358;6.382;2023-06-10T02:52:53;101775.72;;;15.64;93.65
17855;BME280;9053;53.358;6.382;2023-06-10T02:55:23;101773.00;;;15.61;94.01
17855;BME280;9053;53.358;6.382;2023-06-10T02:57:53;101772.91;;;15.57;94.36
17855;BME280;9053;53.358;6.382;2023-06-10T03:00:23;101770.25;;;15.57;94.62
17855;BME280;9053;53.358;6.382;2023-06-10T03:02:54;101774.56;;;15.54;95.02
17855;BME280;9053;53.358;6.382;2023-06-10T03:05:24;101782.50;;;15.52;95.28
17855;BME280;9053;53.358;6.382;2023-06-10T03:07:56;101785.97;;;15.51;95.71
17855;BME280;9053;53.358;6.382;2023-06-10T03:10:26;101778.69;;;15.44;96.02
17855;BME280;9053;53.358;6.382;2023-06-10T03:12:56;101789.31;;;15.44;96.40
17855;BME280;9053;53.358;6.382;2023-06-10T03:15:26;101794.53;;;15.41;96.80
17855;BME280;9053;53.358;6.382;2023-06-10T03:17:59;101796.34;;;15.42;97.19
17855;BME280;9053;53.358;6.382;2023-06-10T03:20:30;101804.16;;;15.38;97.34
17855;BME280;9053;53.358;6.382;2023-06-10T03:23:06;101799.66;;;15.35;97.58
17855;BME280;9053;53.358;6.382;2023-06-10T03:25:42;101802.31;;;15.35;98.00
17855;BME280;9053;53.358;6.382;2023-06-10T03:28:12;101804.97;;;15.35;98.16
17855;BME280;9053;53.358;6.382;2023-06-10T03:30:43;101811.09;;;15.34;98.38
17855;BME280;9053;53.358;6.382;2023-06-10T03:33:13;101803.13;;;15.34;98.38
17855;BME280;9053;53.358;6.382;2023-06-10T03:35:43;101813.81;;;15.35;98.64
17855;BME280;9053;53.358;6.382;2023-06-10T03:38:17;101814.63;;;15.33;98.87
17855;BME280;9053;53.358;6.382;2023-06-10T03:40:49;101816.13;;;15.25;99.00
17855;BME280;9053;53.358;6.382;2023-06-10T03:43:19;101817.78;;;15.21;99.22
17855;BME280;9053;53.358;6.382;2023-06-10T03:45:49;101820.41;;;15.20;99.48
17855;BME280;9053;53.358;6.382;2023-06-10T03:48:19;101822.09;;;15.18;99.92
17855;BME280;9053;53.358;6.382;2023-06-10T03:50:49;101823.75;;;15.14;100.00
17855;BME280;9053;53.358;6.382;2023-06-10T03:53:22;101814.09;;;15.16;100.00
17855;BME280;9053;53.358;6.382;2023-06-10T03:55:52;101828.22;;;15.17;100.00
17855;BME280;9053;53.358;6.382;2023-06-10T03:58:24;101825.50;;;15.13;100.00
17855;BME280;9053;53.358;6.382;2023-06-10T04:00:54;101820.06;;;15.09;100.00
17855;BME280;9053;53.358;6.382;2023-06-10T04:03:24;101828.00;;;15.09;100.00
17855;BME280;9053;53.358;6.382;2023-06-10T04:05:54;101827.91;;;15.06;100.00
17855;BME280;9053;53.358;6.382;2023-06-10T04:08:28;101823.72;;;15.12;100.00
17855;BME280;9053;53.358;6.382;2023-06-10T04:10:58;101829.38;;;15.25;100.00
17855;BME280;9053;53.358;6.382;2023-06-10T04:13:28;101822.16;;;15.49;100.00
17855;BME280;9053;53.358;6.382;2023-06-10T04:15:58;101819.28;;;15.70;100.00
17855;BME280;9053;53.358;6.382;2023-06-10T04:18:27;101826.88;;;15.90;100.00
17855;BME280;9053;53.358;6.382;2023-06-10T04:20:57;101817.66;;;16.09;100.00
17855;BME280;9053;53.358;6.382;2023-06-10T04:23:31;101829.44;;;16.20;100.00
17855;BME280;9053;53.358;6.382;2023-06-10T04:26:00;101832.34;;;16.29;100.00
17855;BME280;9053;53.358;6.382;2023-06-10T04:28:32;101823.22;;;16.53;100.00
17855;BME280;9053;53.358;6.382;2023-06-10T04:31:03;101829.13;;;16.77;100.00
17855;BME280;9053;53.358;6.382;2023-06-10T04:33:33;101822.50;;;16.95;100.00
17855;BME280;9053;53.358;6.382;2023-06-10T04:36:03;101825.50;;;17.10;100.00
17855;BME280;9053;53.358;6.382;2023-06-10T04:38:37;101824.88;;;17.22;100.00
17855;BME280;9053;53.358;6.382;2023-06-10T04:41:07;101842.78;;;17.30;99.89
17855;BME280;9053;53.358;6.382;2023-06-10T04:43:37;101833.19;;;17.37;99.75
17855;BME280;9053;53.358;6.382;2023-06-10T04:46:08;101839.84;;;17.58;99.42
17855;BME280;9053;53.358;6.382;2023-06-10T04:48:38;101831.28;;;17.72;98.84
17855;BME280;9053;53.358;6.382;2023-06-10T04:51:09;101829.88;;;17.90;98.47
17855;BME280;9053;53.358;6.382;2023-06-10T04:53:42;101826.72;;;18.11;98.27
17855;BME280;9053;53.358;6.382;2023-06-10T04:56:12;101837.56;;;18.22;97.08
17855;BME280;9053;53.358;6.382;2023-06-10T04:58:43;101829.75;;;18.31;96.29
17855;BME280;9053;53.358;6.382;2023-06-10T05:01:14;101846.69;;;18.36;96.01
17855;BME280;9053;53.358;6.382;2023-06-10T05:03:44;101831.69;;;18.41;95.57
17855;BME280;9053;53.358;6.382;2023-06-10T05:06:14;101836.34;;;18.54;95.02
17855;BME280;9053;53.358;6.382;2023-06-10T05:08:47;101832.19;;;18.70;94.90
17855;BME280;9053;53.358;6.382;2023-06-10T05:11:16;101836.91;;;18.85;94.52
17855;BME280;9053;53.358;6.382;2023-06-10T05:13:46;101840.84;;;19.12;93.99
17855;BME280;9053;53.358;6.382;2023-06-10T05:16:17;101830.38;;;19.26;93.27
17855;BME280;9053;53.358;6.382;2023-06-10T05:18:48;101834.03;;;19.34;92.60
17855;BME280;9053;53.358;6.382;2023-06-10T05:21:19;101831.44;;;19.38;91.68
17855;BME280;9053;53.358;6.382;2023-06-10T05:23:52;101834.13;;;19.38;91.33
17855;BME280;9053;53.358;6.382;2023-06-10T05:26:22;101833.22;;;19.39;90.79
17855;BME280;9053;53.358;6.382;2023-06-10T05:28:52;101828.78;;;19.40;90.76
17855;BME280;9053;53.358;6.382;2023-06-10T05:31:22;101832.47;;;19.48;90.83
17855;BME280;9053;53.358;6.382;2023-06-10T05:33:52;101832.78;;;19.71;90.72
17855;BME280;9053;53.358;6.382;2023-06-10T05:36:24;101826.81;;;19.95;89.94
17855;BME280;9053;53.358;6.382;2023-06-10T05:38:57;101831.19;;;19.90;88.96
17855;BME280;9053;53.358;6.382;2023-06-10T05:41:27;101844.53;;;19.87;88.36
17855;BME280;9053;53.358;6.382;2023-06-10T05:43:57;101844.38;;;19.73;87.90
17855;BME280;9053;53.358;6.382;2023-06-10T05:46:27;101838.66;;;19.47;87.91
17855;BME280;9053;53.358;6.382;2023-06-10T05:48:58;101834.31;;;19.54;88.39
17855;BME280;9053;53.358;6.382;2023-06-10T05:51:28;101845.91;;;19.56;88.48
17855;BME280;9053;53.358;6.382;2023-06-10T05:54:01;101843.09;;;19.46;88.39
17855;BME280;9053;53.358;6.382;2023-06-10T05:56:31;101837.81;;;19.50;88.57
17855;BME280;9053;53.358;6.382;2023-06-10T05:59:00;101838.78;;;19.58;88.48
17855;BME280;9053;53.358;6.382;2023-06-10T06:01:30;101836.03;;;19.49;88.34
17855;BME280;9053;53.358;6.382;2023-06-10T06:04:00;101833.50;;;19.62;88.75
17855;BME280;9053;53.358;6.382;2023-06-10T06:06:30;101830.25;;;19.83;88.68
17855;BME280;9053;53.358;6.382;2023-06-10T06:09:03;101833.06;;;19.97;88.19
17855;BME280;9053;53.358;6.382;2023-06-10T06:11:34;101832.22;;;20.03;87.95
17855;BME280;9053;53.358;6.382;2023-06-10T06:14:04;101835.03;;;20.14;87.67
17855;BME280;9053;53.358;6.382;2023-06-10T06:16:34;101838.78;;;20.36;87.13
17855;BME280;9053;53.358;6.382;2023-06-10T06:19:04;101839.81;;;20.50;86.92
17855;BME280;9053;53.358;6.382;2023-06-10T06:21:34;101836.38;;;20.60;86.27
17855;BME280;9053;53.358;6.382;2023-06-10T06:24:07;101833.75;;;20.65;85.49
17855;BME280;9053;53.358;6.382;2023-06-10T06:26:37;101835.56;;;20.73;85.21
17855;BME280;9053;53.358;6.382;2023-06-10T06:29:07;101829.47;;;20.91;84.83
17855;BME280;9053;53.358;6.382;2023-06-10T06:31:36;101825.13;;;21.07;83.99
17855;BME280;9053;53.358;6.382;2023-06-10T06:34:07;101838.59;;;21.26;83.78
17855;BME280;9053;53.358;6.382;2023-06-10T06:36:43;101835.19;;;21.48;83.35
17855;BME280;9053;53.358;6.382;2023-06-10T06:39:16;101830.75;;;21.55;82.37
17855;BME280;9053;53.358;6.382;2023-06-10T06:41:46;101823.63;;;21.55;81.72
17855;BME280;9053;53.358;6.382;2023-06-10T06:44:16;101817.41;;;21.72;81.99
17855;BME280;9053;53.358;6.382;2023-06-10T06:46:46;101825.50;;;21.87;82.00
17855;BME280;9053;53.358;6.382;2023-06-10T06:49:16;101820.19;;;22.04;81.52
17855;BME280;9053;53.358;6.382;2023-06-10T06:51:48;101819.28;;;22.10;81.18
17855;BME280;9053;53.358;6.382;2023-06-10T06:54:20;101824.66;;;22.11;80.21
17855;BME280;9053;53.358;6.382;2023-06-10T06:56:50;101825.56;;;22.06;79.57
17855;BME280;9053;53.358;6.382;2023-06-10T06:59:20;101833.59;;;22.02;79.50
17855;BME280;9053;53.358;6.382;2023-06-10T07:01:50;101827.34;;;22.07;79.50
17855;BME280;9053;53.358;6.382;2023-06-10T07:04:20;101836.25;;;22.07;78.70
17855;BME280;9053;53.358;6.382;2023-06-10T07:06:52;101835.34;;;21.91;78.38
17855;BME280;9053;53.358;6.382;2023-06-10T07:09:25;101840.69;;;21.91;78.73
17855;BME280;9053;53.358;6.382;2023-06-10T07:11:55;101838.06;;;22.00;79.15
17855;BME280;9053;53.358;6.382;2023-06-10T07:14:25;101841.66;;;22.18;79.23
17855;BME280;9053;53.358;6.382;2023-06-10T07:16:57;101845.25;;;22.24;78.67
17855;BME280;9053;53.358;6.382;2023-06-10T07:19:27;101836.34;;;22.42;78.40
17855;BME280;9053;53.358;6.382;2023-06-10T07:21:57;101840.81;;;22.53;78.12
17855;BME280;9053;53.358;6.382;2023-06-10T07:24:30;101831.88;;;22.47;77.81
17855;BME280;9053;53.358;6.382;2023-06-10T07:27:00;101840.81;;;22.50;77.63
17855;BME280;9053;53.358;6.382;2023-06-10T07:29:29;101834.56;;;22.63;77.89
17855;BME280;9053;53.358;6.382;2023-06-10T07:32:00;101842.59;;;22.87;78.05
17855;BME280;9053;53.358;6.382;2023-06-10T07:34:30;101839.03;;;23.08;77.35
17855;BME280;9053;53.358;6.382;2023-06-10T07:37:02;101840.78;;;23.22;76.55
17855;BME280;9053;53.358;6.382;2023-06-10T07:39:34;101841.66;;;23.27;76.04
17855;BME280;9053;53.358;6.382;2023-06-10T07:42:05;101849.69;;;23.35;75.83
17855;BME280;9053;53.358;6.382;2023-06-10T07:44:36;101840.69;;;23.43;75.61
17855;BME280;9053;53.358;6.382;2023-06-10T07:47:06;101846.94;;;23.48;74.90
17855;BME280;9053;53.358;6.382;2023-06-10T07:49:36;101842.44;;;23.50;74.66
17855;BME280;9053;53.358;6.382;2023-06-10T07:52:07;101844.22;;;23.64;74.61
17855;BME280;9053;53.358;6.382;2023-06-10T07:54:40;101841.50;;;23.73;74.30
17855;BME280;9053;53.358;6.382;2023-06-10T07:57:09;101841.50;;;23.73;73.92
17855;BME280;9053;53.358;6.382;2023-06-10T07:59:39;101845.94;;;23.79;73.90
17855;BME280;9053;53.358;6.382;2023-06-10T08:02:14;101854.84;;;23.90;74.13
17855;BME280;9053;53.358;6.382;2023-06-10T08:04:43;101849.41;;;24.02;74.56
17855;BME280;9053;53.358;6.382;2023-06-10T08:07:15;101846.59;;;24.19;74.50
17855;BME280;9053;53.358;6.382;2023-06-10T08:09:48;101849.16;;;24.42;73.81
17855;BME280;9053;53.358;6.382;2023-06-10T08:12:18;101854.44;;;24.54;73.22
17855;BME280;9053;53.358;6.382;2023-06-10T08:14:48;101857.19;;;24.50;72.52
17855;BME280;9053;53.358;6.382;2023-06-10T08:17:18;101850.91;;;24.46;72.01
17855;BME280;9053;53.358;6.382;2023-06-10T08:19:48;101842.88;;;24.38;71.65
17855;BME280;9053;53.358;6.382;2023-06-10T08:22:18;101845.53;;;24.48;71.81
17855;BME280;9053;53.358;6.382;2023-06-10T08:24:50;101853.66;;;24.37;71.89
17855;BME280;9053;53.358;6.382;2023-06-10T08:27:21;101847.44;;;24.29;71.60
17855;BME280;9053;53.358;6.382;2023-06-10T08:29:56;101846.59;;;24.22;71.89
17855;BME280;9053;53.358;6.382;2023-06-10T08:32:27;101845.66;;;24.29;71.95
17855;BME280;9053;53.358;6.382;2023-06-10T08:34:57;101848.25;;;24.38;71.84
17855;BME280;9053;53.358;6.382;2023-06-10T08:37:27;101853.59;;;24.43;72.09
17855;BME280;9053;53.358;6.382;2023-06-10T08:40:00;101838.38;;;24.42;72.02
17855;BME280;9053;53.358;6.382;2023-06-10T08:42:33;101842.00;;;24.39;72.35
17855;BME280;9053;53.358;6.382;2023-06-10T08:45:07;101846.44;;;24.50;72.65
17855;BME280;9053;53.358;6.382;2023-06-10T08:47:44;101840.88;;;24.68;71.97
17855;BME280;9053;53.358;6.382;2023-06-10T08:50:16;101839.03;;;24.72;71.58
17855;BME280;9053;53.358;6.382;2023-06-10T08:52:50;101854.28;;;24.73;71.37
17855;BME280;9053;53.358;6.382;2023-06-10T08:55:29;101848.00;;;24.74;71.13
17855;BME280;9053;53.358;6.382;2023-06-10T08:58:00;101849.81;;;24.75;70.65
17855;BME280;9053;53.358;6.382;2023-06-10T09:00:36;101846.13;;;24.82;70.68
17855;BME280;9053;53.358;6.382;2023-06-10T09:03:07;101852.28;;;24.96;71.00
17855;BME280;9053;53.358;6.382;2023-06-10T09:05:38;101857.63;;;24.99;70.07
17855;BME280;9053;53.358;6.382;2023-06-10T09:08:08;101849.53;;;24.99;70.35
17855;BME280;9053;53.358;6.382;2023-06-10T09:10:41;101849.50;;;25.05;70.07
17855;BME280;9053;53.358;6.382;2023-06-10T09:13:11;101843.22;;;25.03;69.28
17855;BME280;9053;53.358;6.382;2023-06-10T09:15:42;101845.19;;;24.88;69.15
17855;BME280;9053;53.358;6.382;2023-06-10T09:18:12;101849.63;;;24.92;69.39
17855;BME280;9053;53.358;6.382;2023-06-10T09:20:43;101847.78;;;24.97;69.32
17855;BME280;9053;53.358;6.382;2023-06-10T09:23:15;101838.72;;;25.04;69.25
17855;BME280;9053;53.358;6.382;2023-06-10T09:25:55;101835.06;;;25.10;69.06
17855;BME280;9053;53.358;6.382;2023-06-10T09:28:26;101844.06;;;25.09;68.92
17855;BME280;9053;53.358;6.382;2023-06-10T09:31:05;101835.97;;;25.12;68.83
17855;BME280;9053;53.358;6.382;2023-06-10T09:33:37;101838.66;;;25.16;68.83
17855;BME280;9053;53.358;6.382;2023-06-10T09:36:08;101836.84;;;25.18;68.88
17855;BME280;9053;53.358;6.382;2023-06-10T09:38:39;101838.63;;;25.18;68.38
17855;BME280;9053;53.358;6.382;2023-06-10T09:41:11;101833.34;;;25.04;68.16
17855;BME280;9053;53.358;6.382;2023-06-10T09:43:46;101833.44;;;24.98;67.61
17855;BME280;9053;53.358;6.382;2023-06-10T09:46:16;101828.97;;;24.95;67.89
17855;BME280;9053;53.358;6.382;2023-06-10T09:48:48;101831.63;;;25.00;68.31
17855;BME280;9053;53.358;6.382;2023-06-10T09:51:18;101827.03;;;25.07;68.62
17855;BME280;9053;53.358;6.382;2023-06-10T09:53:48;101828.78;;;25.12;68.49
17855;BME280;9053;53.358;6.382;2023-06-10T09:56:32;101835.03;;;25.16;67.82
17855;BME280;9053;53.358;6.382;2023-06-10T09:59:03;101834.16;;;25.15;67.38
17855;BME280;9053;53.358;6.382;2023-06-10T10:01:33;101832.34;;;25.16;67.47
17855;BME280;9053;53.358;6.382;2023-06-10T10:04:04;101836.78;;;25.21;67.25
17855;BME280;9053;53.358;6.382;2023-06-10T10:06:34;101837.69;;;25.22;67.46
17855;BME280;9053;53.358;6.382;2023-06-10T10:09:04;101817.91;;;25.26;67.02
17855;BME280;9053;53.358;6.382;2023-06-10T10:11:39;101832.28;;;25.22;67.10
17855;BME280;9053;53.358;6.382;2023-06-10T10:14:09;101834.09;;;25.23;67.12
17855;BME280;9053;53.358;6.382;2023-06-10T10:16:42;101831.41;;;25.21;66.46
17855;BME280;9053;53.358;6.382;2023-06-10T10:19:18;101828.72;;;25.20;66.21
17855;BME280;9053;53.358;6.382;2023-06-10T10:21:53;101833.22;;;25.21;66.86
17855;BME280;9053;53.358;6.382;2023-06-10T10:24:32;101833.25;;;25.18;69.25
17855;BME280;9053;53.358;6.382;2023-06-10T10:27:11;101828.66;;;25.26;70.74
17855;BME280;9053;53.358;6.382;2023-06-10T10:29:47;101832.28;;;25.22;70.87
17855;BME280;9053;53.358;6.382;2023-06-10T10:32:26;101828.72;;;25.21;72.24
17855;BME280;9053;53.358;6.382;2023-06-10T10:35:03;101826.03;;;25.20;72.91
17855;BME280;9053;53.358;6.382;2023-06-10T10:37:39;101818.88;;;25.17;73.44
17855;BME280;9053;53.358;6.382;2023-06-10T10:40:10;101830.63;;;25.09;73.72
17855;BME280;9053;53.358;6.382;2023-06-10T10:42:44;101834.34;;;24.95;74.36
17855;BME280;9053;53.358;6.382;2023-06-10T10:45:15;101825.44;;;24.87;75.41
17855;BME280;9053;53.358;6.382;2023-06-10T10:47:45;101820.88;;;24.97;76.59
17855;BME280;9053;53.358;6.382;2023-06-10T10:50:17;101828.94;;;24.98;76.91
17855;BME280;9053;53.358;6.382;2023-06-10T10:52:53;101821.81;;;24.91;76.93
17855;BME280;9053;53.358;6.382;2023-06-10T10:55:24;101826.38;;;24.88;77.58
17855;BME280;9053;53.358;6.382;2023-06-10T10:57:59;101824.69;;;24.74;78.22
17855;BME280;9053;53.358;6.382;2023-06-10T11:00:30;101817.53;;;24.73;79.13
17855;BME280;9053;53.358;6.382;2023-06-10T11:03:05;101813.94;;;24.73;79.77
17855;BME280;9053;53.358;6.382;2023-06-10T11:05:39;101810.44;;;24.63;79.63
17855;BME280;9053;53.358;6.382;2023-06-10T11:08:11;101814.22;;;24.36;80.70
17855;BME280;9053;53.358;6.382;2023-06-10T11:10:50;101815.13;;;24.33;81.63
17855;BME280;9053;53.358;6.382;2023-06-10T11:13:25;101814.22;;;24.37;82.02
17855;BME280;9053;53.358;6.382;2023-06-10T11:15:57;101816.88;;;24.39;81.88
17855;BME280;9053;53.358;6.382;2023-06-10T11:18:28;101812.44;;;24.35;81.78
17855;BME280;9053;53.358;6.382;2023-06-10T11:21:01;101806.28;;;24.22;82.09
17855;BME280;9053;53.358;6.382;2023-06-10T11:23:34;101818.00;;;24.09;82.23
17855;BME280;9053;53.358;6.382;2023-06-10T11:26:19;101808.13;;;24.12;82.99
17855;BME280;9053;53.358;6.382;2023-06-10T11:29:14;101808.97;;;24.22;83.39
17855;BME280;9053;53.358;6.382;2023-06-10T11:31:46;101805.38;;;24.18;83.21
17855;BME280;9053;53.358;6.382;2023-06-10T11:34:23;101800.97;;;24.13;82.92
17855;BME280;9053;53.358;6.382;2023-06-10T11:36:55;101798.34;;;24.02;82.91
17855;BME280;9053;53.358;6.382;2023-06-10T11:39:27;101791.25;;;23.96;83.50
17855;BME280;9053;53.358;6.382;2023-06-10T11:41:58;101802.91;;;23.94;83.71
17855;BME280;9053;53.358;6.382;2023-06-10T11:44:33;101798.47;;;23.82;83.91
17855;BME280;9053;53.358;6.382;2023-06-10T11:47:05;101790.44;;;23.68;83.95
17855;BME280;9053;53.358;6.382;2023-06-10T11:49:35;101795.88;;;23.61;84.31
17855;BME280;9053;53.358;6.382;2023-06-10T11:52:07;101792.34;;;23.52;84.58
17855;BME280;9053;53.358;6.382;2023-06-10T11:54:37;101808.44;;;23.57;85.03
17855;BME280;9053;53.358;6.382;2023-06-10T11:57:07;101789.63;;;23.55;84.53
17855;BME280;9053;53.358;6.382;2023-06-10T11:59:40;101789.69;;;23.46;84.73
17855;BME280;9053;53.358;6.382;2023-06-10T12:02:14;101791.50;;;23.40;84.91
17855;BME280;9053;53.358;6.382;2023-06-10T12:04:46;101786.13;;;23.40;85.51
17855;BME280;9053;53.358;6.382;2023-06-10T12:07:19;101773.59;;;23.46;85.48
17855;BME280;9053;53.358;6.382;2023-06-10T12:09:58;101788.78;;;23.43;84.96
17855;BME280;9053;53.358;6.382;2023-06-10T12:12:49;101786.13;;;23.35;85.03
17855;BME280;9053;53.358;6.382;2023-06-10T12:15:26;101784.34;;;23.37;85.16
17855;BME280;9053;53.358;6.382;2023-06-10T12:17:58;101787.91;;;23.44;85.32
17855;BME280;9053;53.358;6.382;2023-06-10T12:20:31;101783.41;;;23.46;85.08
17855;BME280;9053;53.358;6.382;2023-06-10T12:23:08;101783.44;;;23.38;84.77
17855;BME280;9053;53.358;6.382;2023-06-10T12:25:39;101787.00;;;23.45;85.01
17855;BME280;9053;53.358;6.382;2023-06-10T12:28:10;101787.91;;;23.44;84.67
17855;BME280;9053;53.358;6.382;2023-06-10T12:30:45;101792.41;;;23.39;84.40
17855;BME280;9053;53.358;6.382;2023-06-10T12:33:18;101785.31;;;23.28;84.12
17855;BME280;9053;53.358;6.382;2023-06-10T12:35:49;101789.75;;;23.29;84.23
17855;BME280;9053;53.358;6.382;2023-06-10T12:38:24;101787.06;;;23.31;84.49
17855;BME280;9053;53.358;6.382;2023-06-10T12:41:01;101789.69;;;23.40;84.75
17855;BME280;9053;53.358;6.382;2023-06-10T12:43:31;101785.25;;;23.39;84.60
17855;BME280;9053;53.358;6.382;2023-06-10T12:46:11;101782.53;;;23.41;84.48
17855;BME280;9053;53.358;6.382;2023-06-10T12:48:49;101784.34;;;23.37;84.41
17855;BME280;9053;53.358;6.382;2023-06-10T12:51:21;101781.69;;;23.32;84.29
17855;BME280;9053;53.358;6.382;2023-06-10T12:53:52;101789.75;;;23.34;84.45
17855;BME280;9053;53.358;6.382;2023-06-10T12:56:22;101783.50;;;23.27;84.20
17855;BME280;9053;53.358;6.382;2023-06-10T12:58:52;101789.75;;;23.28;84.54
17855;BME280;9053;53.358;6.382;2023-06-10T13:01:24;101782.59;;;23.30;84.63
17855;BME280;9053;53.358;6.382;2023-06-10T13:03:56;101779.88;;;23.35;84.99
17855;BME280;9053;53.358;6.382;2023-06-10T13:06:26;101772.69;;;23.43;85.37
17855;BME280;9053;53.358;6.382;2023-06-10T13:08:56;101780.69;;;23.50;85.22
17855;BME280;9053;53.358;6.382;2023-06-10T13:11:27;101769.09;;;23.47;85.11
17855;BME280;9053;53.358;6.382;2023-06-10T13:13:57;101776.25;;;23.49;85.20
17855;BME280;9053;53.358;6.382;2023-06-10T13:16:30;101777.13;;;23.51;85.11
17855;BME280;9053;53.358;6.382;2023-06-10T13:19:00;101780.69;;;23.55;84.91
17855;BME280;9053;53.358;6.382;2023-06-10T13:21:32;101769.06;;;23.50;84.83
17855;BME280;9053;53.358;6.382;2023-06-10T13:24:06;101776.25;;;23.45;84.80